createdAt,value
2022-08-25T03:18:52.422Z,11.03
2022-08-25T03:21:22.190Z,10.33
2022-08-25T03:23:50.117Z,10.50
2022-08-25T03:26:46.729Z,12.03
2022-08-25T03:29:18.470Z,12.67
2022-08-25T03:31:46.512Z,11.70
2022-08-25T03:34:16.782Z,13.53
2022-08-25T03:36:47.168Z,11.77
2022-08-25T03:39:15.846Z,11.13
2022-08-25T03:41:43.802Z,12.07
2022-08-25T03:44:11.809Z,10.73
2022-08-25T03:46:41.472Z,12.87
2022-08-25T03:49:11.960Z,12.00
2022-08-25T03:51:44.032Z,14.57
2022-08-25T03:54:13.510Z,12.33
2022-08-25T03:56:41.608Z,12.60
2022-08-25T03:59:10.241Z,11.93
2022-08-25T04:01:38.419Z,13.57
2022-08-25T04:04:07.449Z,11.27
2022-08-25T04:06:35.635Z,15.33
2022-08-25T04:09:03.511Z,12.20
2022-08-25T04:11:32.752Z,11.23
2022-08-25T04:14:02.303Z,11.37
2022-08-25T04:16:33.643Z,14.80
2022-08-25T04:19:03.785Z,11.93
2022-08-25T04:21:32.246Z,12.93
2022-08-25T04:24:00.338Z,12.70
2022-08-25T04:26:31.110Z,12.83
2022-08-25T04:29:02.893Z,13.70
2022-08-25T04:31:32.280Z,13.63
2022-08-25T04:34:03.122Z,13.83
2022-08-25T04:36:31.423Z,14.77
2022-08-25T04:38:59.392Z,17.73
2022-08-25T04:41:28.699Z,16.07
2022-08-25T04:43:58.574Z,15.27
2022-08-25T04:46:33.179Z,14.90
2022-08-25T04:49:05.547Z,15.67
2022-08-25T04:51:36.231Z,17.13
2022-08-25T04:54:06.377Z,16.10
2022-08-25T04:56:34.699Z,16.37
2022-08-25T04:59:04.809Z,20.27
2022-08-25T05:01:35.060Z,16.00
2022-08-25T05:04:05.720Z,15.37
2022-08-25T05:06:34.504Z,16.40
2022-08-25T05:09:04.563Z,19.00
2022-08-25T05:11:34.045Z,17.87
2022-08-25T05:14:03.243Z,17.23
2022-08-25T05:16:31.879Z,16.73
2022-08-25T05:19:01.760Z,19.77
2022-08-25T05:21:30.034Z,21.20
2022-08-25T05:23:58.700Z,16.13
2022-08-25T05:26:31.248Z,18.97
2022-08-25T05:29:00.698Z,19.03
2022-08-25T05:31:29.761Z,17.00
2022-08-25T05:33:57.902Z,17.73
2022-08-25T05:36:29.519Z,18.67
2022-08-25T05:38:57.523Z,20.73
2022-08-25T05:41:29.351Z,15.40
2022-08-25T05:43:58.128Z,17.27
2022-08-25T05:46:26.921Z,18.40
2022-08-25T05:48:55.612Z,19.90
2022-08-25T05:51:23.850Z,18.23
2022-08-25T05:53:53.340Z,18.73
2022-08-25T05:56:22.447Z,17.63
2022-08-25T05:58:51.232Z,16.10
2022-08-25T06:01:44.960Z,22.27
2022-08-25T06:04:13.847Z,18.50
2022-08-25T06:06:41.932Z,18.27
2022-08-25T06:09:11.694Z,22.40
2022-08-25T06:11:40.818Z,18.63
2022-08-25T06:14:09.843Z,19.93
2022-08-25T06:16:38.843Z,18.33
2022-08-25T06:19:07.850Z,16.27
2022-08-25T06:21:35.897Z,17.13
2022-08-25T06:24:04.357Z,19.70
2022-08-25T06:26:33.595Z,21.10
2022-08-25T06:29:01.867Z,15.73
2022-08-25T06:31:29.994Z,19.60
2022-08-25T06:33:58.197Z,17.67
2022-08-25T06:36:26.057Z,20.07
2022-08-25T06:38:54.564Z,17.93
2022-08-25T06:41:22.486Z,19.00
2022-08-25T06:43:56.740Z,19.30
2022-08-25T06:46:36.348Z,17.43
2022-08-25T06:49:05.633Z,22.80
2022-08-25T06:51:36.151Z,18.27
2022-08-25T06:54:05.249Z,18.70
2022-08-25T06:56:34.029Z,16.50
2022-08-25T06:59:03.687Z,16.03
2022-08-25T07:01:32.155Z,16.33
2022-08-25T07:04:04.247Z,16.00
2022-08-25T07:06:35.412Z,14.98
2022-08-25T07:09:04.661Z,15.32
2022-08-25T07:11:34.395Z,16.40
2022-08-25T07:14:05.204Z,14.00
2022-08-25T07:16:34.790Z,16.70
2022-08-25T07:19:06.267Z,13.82
2022-08-25T07:21:41.411Z,14.82
2022-08-25T07:24:11.472Z,12.55
2022-08-25T07:26:42.154Z,16.65
2022-08-25T07:29:14.110Z,18.38
2022-08-25T07:31:42.169Z,15.73
2022-08-25T07:34:28.434Z,14.05
2022-08-25T07:36:57.801Z,14.82
2022-08-25T07:39:28.507Z,15.63
2022-08-25T07:41:57.214Z,15.13
2022-08-25T07:44:28.073Z,14.18
2022-08-25T07:46:56.682Z,15.10
2022-08-25T07:49:26.844Z,18.23
2022-08-25T07:52:06.662Z,13.73
2022-08-25T07:54:37.896Z,13.85
2022-08-25T07:57:08.257Z,12.45
2022-08-25T07:59:41.475Z,15.20
2022-08-25T08:02:16.162Z,13.80
2022-08-25T08:04:48.595Z,14.75
2022-08-25T08:07:18.887Z,14.10
2022-08-25T08:09:48.686Z,13.70
2022-08-25T08:12:19.073Z,12.23
2022-08-25T08:14:48.416Z,19.42
2022-08-25T08:17:16.470Z,12.45
2022-08-25T08:19:45.332Z,12.13
2022-08-25T08:22:16.079Z,19.50
2022-08-25T08:24:54.429Z,14.90
2022-08-25T08:27:24.655Z,14.35
2022-08-25T08:29:54.732Z,13.18
2022-08-25T08:32:31.445Z,11.75
2022-08-25T08:35:03.525Z,12.18
2022-08-25T08:37:31.399Z,12.93
2022-08-25T08:40:01.597Z,13.52
2022-08-25T08:42:52.914Z,11.55
2022-08-25T08:45:31.153Z,11.43
2022-08-25T08:48:33.644Z,12.15
2022-08-25T08:51:10.046Z,12.80
2022-08-25T08:53:46.183Z,12.05
2022-08-25T08:56:17.716Z,15.10
2022-08-25T08:58:50.827Z,13.35
2022-08-25T09:01:26.515Z,12.65
2022-08-25T09:04:00.701Z,10.98
2022-08-25T09:06:33.071Z,12.65
2022-08-25T09:09:07.103Z,14.10
2022-08-25T09:11:52.662Z,13.65
2022-08-25T09:14:35.623Z,11.90
2022-08-25T09:17:11.425Z,14.80
2022-08-25T09:20:00.702Z,9.98
2022-08-25T09:22:40.001Z,12.43
2022-08-25T09:25:22.076Z,12.23
2022-08-25T09:28:08.085Z,10.75
2022-08-25T09:30:46.186Z,13.30
2022-08-25T09:33:20.855Z,11.88
2022-08-25T09:36:08.821Z,13.30
2022-08-25T09:38:42.459Z,11.85
2022-08-25T09:41:11.951Z,12.48
2022-08-25T09:43:44.533Z,10.98
2022-08-25T09:46:14.694Z,12.38
2022-08-25T09:48:56.866Z,10.13
2022-08-25T09:51:28.394Z,15.40
2022-08-25T09:54:00.564Z,12.63
2022-08-25T09:56:31.900Z,13.85
2022-08-25T09:59:34.287Z,15.07
2022-08-25T10:02:06.720Z,15.65
2022-08-25T10:04:38.089Z,13.02
2022-08-25T10:07:35.560Z,13.85
2022-08-25T10:10:07.721Z,13.57
2022-08-25T10:12:42.335Z,12.52
2022-08-25T10:15:29.200Z,13.20
2022-08-25T10:18:17.086Z,14.48
2022-08-25T10:21:07.647Z,14.93
2022-08-25T10:23:38.396Z,12.25
2022-08-25T10:26:14.275Z,12.13
2022-08-25T10:28:59.140Z,10.40
2022-08-25T10:31:34.835Z,12.35
2022-08-25T10:34:24.680Z,11.88
2022-08-25T10:37:04.040Z,11.23
2022-08-25T10:39:40.614Z,11.40
2022-08-25T10:42:34.192Z,13.70
2022-08-25T10:45:34.290Z,15.75
2022-08-25T10:48:30.923Z,11.73
2022-08-25T10:51:04.676Z,12.38
2022-08-25T10:53:47.217Z,10.88
2022-08-25T10:56:20.968Z,13.90
2022-08-25T10:59:20.525Z,12.40
2022-08-25T11:02:03.916Z,11.73
2022-08-25T11:04:37.464Z,14.30
2022-08-25T11:07:10.386Z,11.13
2022-08-25T11:09:42.537Z,11.85
2022-08-25T11:12:15.244Z,11.23
2022-08-25T11:14:50.730Z,12.23
2022-08-25T11:17:24.920Z,14.02
2022-08-25T11:19:59.107Z,11.15
2022-08-25T11:22:34.269Z,10.75
2022-08-25T11:25:13.049Z,10.63
2022-08-25T11:27:48.808Z,13.00
2022-08-25T11:30:18.915Z,11.80
2022-08-25T11:32:49.629Z,11.13
2022-08-25T11:35:20.942Z,10.57
2022-08-25T11:38:04.874Z,14.32
2022-08-25T11:40:42.724Z,9.30
2022-08-25T11:43:28.331Z,10.38
2022-08-25T11:46:11.752Z,10.32
2022-08-25T11:48:46.048Z,12.82
2022-08-25T11:51:33.789Z,10.65
2022-08-25T11:54:21.317Z,8.98
2022-08-25T11:56:59.923Z,11.70
2022-08-25T12:00:04.207Z,9.57
2022-08-25T12:02:36.409Z,9.73
2022-08-25T12:05:06.346Z,10.35
2022-08-25T12:08:21.000Z,8.88
2022-08-25T12:11:01.300Z,9.73
2022-08-25T12:13:45.850Z,8.52
2022-08-25T12:16:43.532Z,10.65
2022-08-25T12:19:47.986Z,10.60
2022-08-25T12:22:58.760Z,10.63
2022-08-25T12:25:47.568Z,10.82
2022-08-25T12:28:35.090Z,15.25
2022-08-25T12:31:12.762Z,12.02
2022-08-25T12:33:54.557Z,11.65
2022-08-25T12:36:31.558Z,9.35
2022-08-25T12:39:19.057Z,9.48
2022-08-25T12:41:59.471Z,13.52
2022-08-25T12:44:42.122Z,8.63
2022-08-25T12:47:31.758Z,9.07
2022-08-25T12:50:35.779Z,9.77
2022-08-25T12:53:12.289Z,10.10
2022-08-25T12:55:45.153Z,13.75
2022-08-25T12:58:21.835Z,9.32
2022-08-25T13:01:15.654Z,12.25
2022-08-25T13:04:34.064Z,12.88
2022-08-25T13:07:19.059Z,8.10
2022-08-25T13:10:30.652Z,9.02
2022-08-25T13:13:04.811Z,12.43
2022-08-25T13:15:41.018Z,7.63
2022-08-25T13:18:18.727Z,8.98
2022-08-25T13:20:49.722Z,9.15
2022-08-25T13:23:21.141Z,9.65
2022-08-25T13:25:50.576Z,10.70
2022-08-25T13:28:27.202Z,9.15
2022-08-25T13:31:05.784Z,10.63
2022-08-25T13:33:34.971Z,11.63
2022-08-25T13:36:23.653Z,7.95
2022-08-25T13:38:52.298Z,10.85
2022-08-25T13:41:28.972Z,11.27
2022-08-25T13:44:01.077Z,8.73
2022-08-25T13:46:31.717Z,9.93
2022-08-25T13:49:05.664Z,11.85
2022-08-25T13:51:35.657Z,7.43
2022-08-25T13:54:06.986Z,9.73
2022-08-25T13:56:41.106Z,8.85
2022-08-25T13:59:23.024Z,10.70
2022-08-25T14:01:55.614Z,8.60
2022-08-25T14:04:32.937Z,11.60
2022-08-25T14:07:15.396Z,10.48
2022-08-25T14:09:52.637Z,9.00
2022-08-25T14:12:36.741Z,11.18
2022-08-25T14:15:27.540Z,7.38
2022-08-25T14:18:04.202Z,7.93
2022-08-25T14:20:33.749Z,8.93
2022-08-25T14:23:09.715Z,9.27
2022-08-25T14:25:40.556Z,7.20
2022-08-25T14:28:14.255Z,9.13
2022-08-25T14:30:46.882Z,8.63
2022-08-25T14:33:17.073Z,20.95
2022-08-25T14:35:48.894Z,8.68
2022-08-25T14:38:18.745Z,8.88
2022-08-25T14:40:48.561Z,8.43
2022-08-25T14:43:18.418Z,10.95
2022-08-25T14:45:52.379Z,8.38
2022-08-25T14:48:26.505Z,7.93
2022-08-25T14:50:55.546Z,12.10
2022-08-25T14:53:25.392Z,9.80
2022-08-25T14:55:58.767Z,8.25
2022-08-25T14:58:27.889Z,11.65
2022-08-25T15:01:07.043Z,9.23
2022-08-25T15:03:41.438Z,8.55
2022-08-25T15:06:12.300Z,10.02
2022-08-25T15:08:59.567Z,9.65
2022-08-25T15:11:28.403Z,10.35
2022-08-25T15:13:57.251Z,12.82
2022-08-25T15:16:33.913Z,8.30
2022-08-25T15:19:06.756Z,10.27
2022-08-25T15:21:36.049Z,10.63
2022-08-25T15:24:05.966Z,10.55
2022-08-25T15:26:40.974Z,8.43
2022-08-25T15:29:09.098Z,11.73
2022-08-25T15:31:37.563Z,9.82
2022-08-25T15:34:11.796Z,7.60
2022-08-25T15:36:41.815Z,8.95
2022-08-25T15:39:11.723Z,7.05
2022-08-25T15:41:39.936Z,8.63
2022-08-25T15:44:13.018Z,18.45
2022-08-25T15:46:41.869Z,7.57
2022-08-25T15:49:15.087Z,8.50
2022-08-25T15:51:48.823Z,9.10
2022-08-25T15:54:18.059Z,8.20
2022-08-25T15:56:45.927Z,7.72
2022-08-25T15:59:13.881Z,8.90
2022-08-25T16:01:43.122Z,8.02
2022-08-25T16:04:12.699Z,9.63
2022-08-25T16:06:40.618Z,9.02
2022-08-25T16:09:08.515Z,10.80
2022-08-25T16:11:38.696Z,10.57
2022-08-25T16:14:07.284Z,8.27
2022-08-25T16:16:35.435Z,7.32
2022-08-25T16:19:04.902Z,11.82
2022-08-25T16:21:37.032Z,7.93
2022-08-25T16:24:13.230Z,7.45
2022-08-25T16:26:48.405Z,11.38
2022-08-25T16:29:17.092Z,7.75
2022-08-25T16:31:45.364Z,9.50
2022-08-25T16:34:24.473Z,13.00
2022-08-25T16:36:52.611Z,9.02
2022-08-25T16:39:20.933Z,10.68
2022-08-25T16:41:51.371Z,8.82
2022-08-25T16:44:22.781Z,7.47
2022-08-25T16:46:54.657Z,7.25
2022-08-25T16:49:24.363Z,11.15
2022-08-25T16:51:57.089Z,12.18
2022-08-25T16:54:43.682Z,9.85
2022-08-25T16:57:13.273Z,12.43
2022-08-25T16:59:42.466Z,6.78
2022-08-25T17:02:13.914Z,7.20
2022-08-25T17:04:42.020Z,12.60
2022-08-25T17:07:10.333Z,9.00
2022-08-25T17:09:38.436Z,8.32
2022-08-25T17:12:06.721Z,10.60
2022-08-25T17:14:36.086Z,8.15
2022-08-25T17:17:07.045Z,9.65
2022-08-25T17:19:35.285Z,8.10
2022-08-25T17:22:03.363Z,10.25
2022-08-25T17:24:33.574Z,8.68
2022-08-25T17:27:02.021Z,7.38
2022-08-25T17:29:30.537Z,9.65
2022-08-25T17:31:59.916Z,11.18
2022-08-25T17:34:29.520Z,10.30
2022-08-25T17:36:58.433Z,9.25
2022-08-25T17:39:30.463Z,10.20
2022-08-25T17:41:58.460Z,9.63
2022-08-25T17:44:27.422Z,10.95
2022-08-25T17:46:55.368Z,11.57
2022-08-25T17:49:26.171Z,13.95
2022-08-25T17:51:54.044Z,7.05
2022-08-25T17:54:22.103Z,11.90
2022-08-25T17:56:50.001Z,8.90
2022-08-25T17:59:18.858Z,7.75
2022-08-25T18:01:47.852Z,10.38
2022-08-25T18:04:17.820Z,9.05
2022-08-25T18:06:49.292Z,9.82
2022-08-25T18:09:17.983Z,8.90
2022-08-25T18:11:46.577Z,9.05
2022-08-25T18:14:16.542Z,8.27
2022-08-25T18:16:45.184Z,11.05
2022-08-25T18:19:14.663Z,11.85
2022-08-25T18:21:43.360Z,13.48
2022-08-25T18:24:13.572Z,13.73
2022-08-25T18:26:42.604Z,10.68
2022-08-25T18:29:13.493Z,10.23
2022-08-25T18:31:42.385Z,12.52
2022-08-25T18:34:11.506Z,11.73
2022-08-25T18:36:40.329Z,10.40
2022-08-25T18:39:28.047Z,11.35
2022-08-25T18:42:01.704Z,11.18
2022-08-25T18:44:29.915Z,12.18
2022-08-25T18:46:57.946Z,9.63
2022-08-25T18:49:26.740Z,8.77
2022-08-25T18:51:59.487Z,10.77
2022-08-25T18:54:27.725Z,10.43
2022-08-25T18:56:56.415Z,12.43
2022-08-25T18:59:25.741Z,11.98
2022-08-25T19:01:54.424Z,13.90
2022-08-25T19:04:31.408Z,10.45
2022-08-25T19:07:01.970Z,12.52
2022-08-25T19:09:31.884Z,12.98
2022-08-25T19:11:59.998Z,14.68
2022-08-25T19:14:29.553Z,13.90
2022-08-25T19:16:58.019Z,16.75
2022-08-25T19:19:26.268Z,12.27
2022-08-25T19:21:54.325Z,11.95
2022-08-25T19:24:22.988Z,11.65
2022-08-25T19:26:54.554Z,11.32
2022-08-25T19:29:23.552Z,10.52
2022-08-25T19:31:53.524Z,13.80
2022-08-25T19:34:28.311Z,7.90
2022-08-25T19:37:00.619Z,8.30
2022-08-25T19:39:28.972Z,11.95
2022-08-25T19:41:59.040Z,9.48
2022-08-25T19:44:28.063Z,10.95
2022-08-25T19:46:58.177Z,11.70
2022-08-25T19:49:27.801Z,9.43
2022-08-25T19:51:59.832Z,11.45
2022-08-25T19:54:30.690Z,12.40
2022-08-25T19:56:59.154Z,10.60
2022-08-25T19:59:42.258Z,10.32
2022-08-25T20:02:15.783Z,11.93
2022-08-25T20:04:49.496Z,7.57
2022-08-25T20:07:20.064Z,13.93
2022-08-25T20:09:48.625Z,10.77
2022-08-25T20:12:17.273Z,12.13
2022-08-25T20:14:47.297Z,8.88
2022-08-25T20:17:23.707Z,9.98
2022-08-25T20:19:54.419Z,11.65
2022-08-25T20:22:26.337Z,12.00
2022-08-25T20:24:58.011Z,12.68
2022-08-25T20:27:31.655Z,10.40
2022-08-25T20:29:59.963Z,10.32
2022-08-25T20:32:33.623Z,9.07
2022-08-25T20:35:02.380Z,13.52
2022-08-25T20:37:31.434Z,9.52
2022-08-25T20:40:02.133Z,12.68
2022-08-25T20:42:30.131Z,10.98
2022-08-25T20:44:58.330Z,12.52
2022-08-25T20:47:26.572Z,13.07
2022-08-25T20:49:55.912Z,10.73
2022-08-25T20:52:23.947Z,10.82
2022-08-25T20:54:52.368Z,12.15
2022-08-25T20:57:24.459Z,14.93
2022-08-25T20:59:55.687Z,12.63
2022-08-25T21:02:24.305Z,10.25
2022-08-25T21:04:52.867Z,13.63
2022-08-25T21:07:23.788Z,16.90
2022-08-25T21:09:52.108Z,15.98
2022-08-25T21:12:20.434Z,13.88
2022-08-25T21:14:49.020Z,12.55
2022-08-25T21:17:19.255Z,15.93
2022-08-25T21:22:17.067Z,12.98
2022-08-25T21:24:46.563Z,17.20
2022-08-25T21:27:14.788Z,12.15
2022-08-25T21:29:44.542Z,12.07
2022-08-25T21:32:19.416Z,12.77
2022-08-25T21:34:47.439Z,15.48
2022-08-25T21:37:15.704Z,11.77
2022-08-25T21:39:44.282Z,11.70
2022-08-25T21:42:14.202Z,15.88
2022-08-25T21:44:43.204Z,14.63
2022-08-25T21:47:11.066Z,10.77
2022-08-25T21:49:39.017Z,12.23
2022-08-25T21:52:07.196Z,12.00
2022-08-25T21:54:35.141Z,12.85
2022-08-25T21:57:05.636Z,15.85
2022-08-25T21:59:37.477Z,11.15
2022-08-25T22:02:08.022Z,10.63
2022-08-25T22:04:38.894Z,13.27
2022-08-25T22:07:10.885Z,13.63
2022-08-25T22:09:39.130Z,11.82
2022-08-25T22:12:07.785Z,16.08
2022-08-25T22:14:37.879Z,12.32
2022-08-25T22:17:06.980Z,14.15
2022-08-25T22:19:37.210Z,10.50
2022-08-25T22:22:06.761Z,12.35
2022-08-25T22:24:34.872Z,13.95
2022-08-25T22:27:02.874Z,11.55
2022-08-25T22:29:30.965Z,15.88
2022-08-25T22:32:02.040Z,12.60
2022-08-25T22:34:32.922Z,11.90
2022-08-25T22:37:01.590Z,14.40
2022-08-25T22:39:30.016Z,12.60
2022-08-25T22:41:58.061Z,13.82
2022-08-25T22:44:26.573Z,12.52
2022-08-25T22:46:54.652Z,14.57
2022-08-25T22:49:24.683Z,13.27
2022-08-25T22:51:55.110Z,13.27
2022-08-25T22:54:25.263Z,12.88
2022-08-25T22:56:53.905Z,13.27
2022-08-25T22:59:22.122Z,14.75
2022-08-25T23:01:52.420Z,16.17
2022-08-25T23:04:20.947Z,14.73
2022-08-25T23:06:50.315Z,13.25
2022-08-25T23:09:18.923Z,9.65
2022-08-25T23:11:46.781Z,13.18
2022-08-25T23:14:14.710Z,9.77
2022-08-25T23:16:44.272Z,15.30
2022-08-25T23:19:13.966Z,15.15
2022-08-25T23:22:00.089Z,14.07
2022-08-25T23:24:30.788Z,16.75
2022-08-25T23:26:59.183Z,15.88
2022-08-25T23:29:27.833Z,12.77
2022-08-25T23:31:57.138Z,14.35
2022-08-25T23:34:25.780Z,12.05
2022-08-25T23:36:53.908Z,16.00
2022-08-25T23:39:22.546Z,13.70
2022-08-25T23:41:52.646Z,10.88
2022-08-25T23:44:21.758Z,17.35
2022-08-25T23:46:50.403Z,15.73
2022-08-25T23:49:20.979Z,11.63
2022-08-25T23:51:51.864Z,18.23
2022-08-25T23:54:22.127Z,20.15
2022-08-25T23:57:01.684Z,14.60
2022-08-25T23:59:29.613Z,16.35
